Park Ridge, Wisconsin
Current Conditions -  °F | °C
As of 7:15 PM on Saturday 22 Nov 2014 (Local Time) from KSTE Reporting Station
Haze Haze  
Wind Chill: 30°   Ceiling: 300
Heat Index: 35°   Visibility: 1.5mi
Dew Point: 35°   Wind: 6mph
Humidity: 100%   Direction: 190°S
Pressure: 29.74"   Gusts: NA
Location:  44.5531°N, 89.5186°W
Report Text: KSTE 230115Z AUTO 19005KT 1 1/2SM BR OVC003 02/02 A2974 RMK AO2 T00150015
Loading
Personal Weather Stations






























Interactive Weather Map New forecast layout! Learn more

10-Day Weather Forecast

Advertisements
Track Severe Weather on mobile